sensor_id;sensor_type;location;lat;lon;timestamp;P1;durP1;ratioP1;P2;durP2;ratioP2
37001;SDS011;22913;51.910;8.374;2023-02-23T00:00:26;32.40;;;29.07;;
37001;SDS011;22913;51.910;8.374;2023-02-23T00:03:13;34.13;;;28.87;;
37001;SDS011;22913;51.910;8.374;2023-02-23T00:06:01;36.73;;;28.00;;
37001;SDS011;22913;51.910;8.374;2023-02-23T00:08:47;34.60;;;28.83;;
37001;SDS011;22913;51.910;8.374;2023-02-23T00:11:36;33.07;;;29.40;;
37001;SDS011;22913;51.910;8.374;2023-02-23T00:14:23;33.37;;;28.90;;
37001;SDS011;22913;51.910;8.374;2023-02-23T00:17:11;34.87;;;30.03;;
37001;SDS011;22913;51.910;8.374;2023-02-23T00:20:00;33.33;;;29.40;;
37001;SDS011;22913;51.910;8.374;2023-02-23T00:22:51;33.33;;;29.07;;
37001;SDS011;22913;51.910;8.374;2023-02-23T00:25:38;32.83;;;29.30;;
37001;SDS011;22913;51.910;8.374;2023-02-23T00:28:26;33.77;;;29.47;;
37001;SDS011;22913;51.910;8.374;2023-02-23T00:31:13;33.63;;;29.70;;
37001;SDS011;22913;51.910;8.374;2023-02-23T00:33:59;35.43;;;30.57;;
37001;SDS011;22913;51.910;8.374;2023-02-23T00:36:48;35.03;;;30.03;;
37001;SDS011;22913;51.910;8.374;2023-02-23T00:39:37;33.47;;;29.83;;
37001;SDS011;22913;51.910;8.374;2023-02-23T00:42:23;33.47;;;29.90;;
37001;SDS011;22913;51.910;8.374;2023-02-23T00:45:16;36.67;;;30.17;;
37001;SDS011;22913;51.910;8.374;2023-02-23T00:48:03;37.80;;;30.73;;
37001;SDS011;22913;51.910;8.374;2023-02-23T00:50:56;33.17;;;29.70;;
37001;SDS011;22913;51.910;8.374;2023-02-23T00:53:43;34.17;;;29.70;;
37001;SDS011;22913;51.910;8.374;2023-02-23T00:56:29;35.53;;;31.57;;
37001;SDS011;22913;51.910;8.374;2023-02-23T00:59:14;34.90;;;29.87;;
37001;SDS011;22913;51.910;8.374;2023-02-23T01:02:02;36.97;;;32.33;;
37001;SDS011;22913;51.910;8.374;2023-02-23T01:04:48;36.07;;;32.10;;
37001;SDS011;22913;51.910;8.374;2023-02-23T01:07:34;36.57;;;32.53;;
37001;SDS011;22913;51.910;8.374;2023-02-23T01:10:19;34.63;;;29.93;;
37001;SDS011;22913;51.910;8.374;2023-02-23T01:13:06;34.90;;;31.23;;
37001;SDS011;22913;51.910;8.374;2023-02-23T01:15:52;37.07;;;30.87;;
37001;SDS011;22913;51.910;8.374;2023-02-23T01:18:39;36.40;;;31.63;;
37001;SDS011;22913;51.910;8.374;2023-02-23T01:21:27;37.00;;;32.47;;
37001;SDS011;22913;51.910;8.374;2023-02-23T01:24:14;36.77;;;32.83;;
37001;SDS011;22913;51.910;8.374;2023-02-23T01:26:59;37.80;;;33.63;;
37001;SDS011;22913;51.910;8.374;2023-02-23T01:29:45;37.10;;;32.97;;
37001;SDS011;22913;51.910;8.374;2023-02-23T01:32:33;37.63;;;33.23;;
37001;SDS011;22913;51.910;8.374;2023-02-23T01:35:20;37.33;;;32.50;;
37001;SDS011;22913;51.910;8.374;2023-02-23T01:38:06;38.73;;;33.57;;
37001;SDS011;22913;51.910;8.374;2023-02-23T01:40:52;37.80;;;33.70;;
37001;SDS011;22913;51.910;8.374;2023-02-23T01:46:43;35.97;;;31.70;;
37001;SDS011;22913;51.910;8.374;2023-02-23T01:49:32;37.70;;;33.77;;
37001;SDS011;22913;51.910;8.374;2023-02-23T01:52:20;36.20;;;32.47;;
37001;SDS011;22913;51.910;8.374;2023-02-23T01:55:05;38.77;;;33.53;;
37001;SDS011;22913;51.910;8.374;2023-02-23T01:57:58;38.93;;;32.47;;
37001;SDS011;22913;51.910;8.374;2023-02-23T02:00:49;39.50;;;33.90;;
37001;SDS011;22913;51.910;8.374;2023-02-23T02:03:38;38.13;;;32.37;;
37001;SDS011;22913;51.910;8.374;2023-02-23T02:06:26;41.60;;;34.87;;
37001;SDS011;22913;51.910;8.374;2023-02-23T02:09:15;39.80;;;35.03;;
37001;SDS011;22913;51.910;8.374;2023-02-23T02:12:02;41.20;;;32.90;;
37001;SDS011;22913;51.910;8.374;2023-02-23T02:14:51;38.77;;;34.13;;
37001;SDS011;22913;51.910;8.374;2023-02-23T02:17:38;37.70;;;33.70;;
37001;SDS011;22913;51.910;8.374;2023-02-23T02:20:31;36.77;;;32.60;;
37001;SDS011;22913;51.910;8.374;2023-02-23T02:27:07;39.60;;;35.33;;
37001;SDS011;22913;51.910;8.374;2023-02-23T02:30:10;40.47;;;34.83;;
37001;SDS011;22913;51.910;8.374;2023-02-23T02:33:32;38.10;;;34.00;;
37001;SDS011;22913;51.910;8.374;2023-02-23T02:39:52;39.37;;;35.30;;
37001;SDS011;22913;51.910;8.374;2023-02-23T02:42:59;41.20;;;35.10;;
37001;SDS011;22913;51.910;8.374;2023-02-23T02:45:54;39.53;;;34.60;;
37001;SDS011;22913;51.910;8.374;2023-02-23T02:48:45;38.37;;;34.17;;
37001;SDS011;22913;51.910;8.374;2023-02-23T02:51:37;38.70;;;34.67;;
37001;SDS011;22913;51.910;8.374;2023-02-23T02:54:29;39.90;;;35.70;;
37001;SDS011;22913;51.910;8.374;2023-02-23T02:57:18;37.87;;;33.73;;
37001;SDS011;22913;51.910;8.374;2023-02-23T03:00:07;38.27;;;34.27;;
37001;SDS011;22913;51.910;8.374;2023-02-23T03:03:26;39.40;;;34.60;;
37001;SDS011;22913;51.910;8.374;2023-02-23T03:06:34;40.37;;;33.80;;
37001;SDS011;22913;51.910;8.374;2023-02-23T03:09:46;38.63;;;32.73;;
37001;SDS011;22913;51.910;8.374;2023-02-23T03:13:00;38.83;;;33.57;;
37001;SDS011;22913;51.910;8.374;2023-02-23T03:16:14;39.07;;;34.27;;
37001;SDS011;22913;51.910;8.374;2023-02-23T03:19:25;40.73;;;35.93;;
37001;SDS011;22913;51.910;8.374;2023-02-23T03:22:33;38.47;;;34.30;;
37001;SDS011;22913;51.910;8.374;2023-02-23T03:25:47;38.07;;;33.97;;
37001;SDS011;22913;51.910;8.374;2023-02-23T03:28:58;37.73;;;33.63;;
37001;SDS011;22913;51.910;8.374;2023-02-23T03:32:08;44.47;;;35.93;;
37001;SDS011;22913;51.910;8.374;2023-02-23T03:35:20;43.27;;;35.60;;
37001;SDS011;22913;51.910;8.374;2023-02-23T03:38:28;40.67;;;33.53;;
37001;SDS011;22913;51.910;8.374;2023-02-23T03:41:39;40.73;;;35.40;;
37001;SDS011;22913;51.910;8.374;2023-02-23T03:44:44;39.67;;;35.00;;
37001;SDS011;22913;51.910;8.374;2023-02-23T03:47:49;43.07;;;36.33;;
37001;SDS011;22913;51.910;8.374;2023-02-23T03:50:57;41.93;;;34.87;;
37001;SDS011;22913;51.910;8.374;2023-02-23T03:54:05;40.63;;;35.77;;
37001;SDS011;22913;51.910;8.374;2023-02-23T03:57:14;50.70;;;37.20;;
37001;SDS011;22913;51.910;8.374;2023-02-23T04:00:26;45.63;;;36.67;;
37001;SDS011;22913;51.910;8.374;2023-02-23T04:03:33;40.90;;;36.50;;
37001;SDS011;22913;51.910;8.374;2023-02-23T04:06:38;40.60;;;35.27;;
37001;SDS011;22913;51.910;8.374;2023-02-23T04:09:45;41.13;;;36.53;;
37001;SDS011;22913;51.910;8.374;2023-02-23T04:12:50;43.87;;;36.90;;
37001;SDS011;22913;51.910;8.374;2023-02-23T04:15:59;39.13;;;34.93;;
37001;SDS011;22913;51.910;8.374;2023-02-23T04:18:45;42.90;;;38.03;;
37001;SDS011;22913;51.910;8.374;2023-02-23T04:21:31;50.20;;;37.83;;
37001;SDS011;22913;51.910;8.374;2023-02-23T04:24:17;42.20;;;36.67;;
37001;SDS011;22913;51.910;8.374;2023-02-23T04:27:02;40.00;;;35.87;;
37001;SDS011;22913;51.910;8.374;2023-02-23T04:29:50;41.27;;;36.37;;
37001;SDS011;22913;51.910;8.374;2023-02-23T04:32:35;40.70;;;36.23;;
37001;SDS011;22913;51.910;8.374;2023-02-23T04:35:22;41.07;;;36.37;;
37001;SDS011;22913;51.910;8.374;2023-02-23T04:38:08;41.33;;;36.70;;
37001;SDS011;22913;51.910;8.374;2023-02-23T04:40:54;40.83;;;36.43;;
37001;SDS011;22913;51.910;8.374;2023-02-23T04:43:39;43.37;;;37.27;;
37001;SDS011;22913;51.910;8.374;2023-02-23T04:46:26;43.97;;;37.60;;
37001;SDS011;22913;51.910;8.374;2023-02-23T04:49:12;45.80;;;37.67;;
37001;SDS011;22913;51.910;8.374;2023-02-23T04:51:58;41.60;;;36.97;;
37001;SDS011;22913;51.910;8.374;2023-02-23T04:54:43;46.10;;;37.40;;
37001;SDS011;22913;51.910;8.374;2023-02-23T04:57:29;44.40;;;37.00;;
37001;SDS011;22913;51.910;8.374;2023-02-23T05:00:15;41.57;;;37.17;;
37001;SDS011;22913;51.910;8.374;2023-02-23T05:03:03;47.00;;;38.20;;
37001;SDS011;22913;51.910;8.374;2023-02-23T05:05:48;42.63;;;37.20;;
37001;SDS011;22913;51.910;8.374;2023-02-23T05:08:34;47.30;;;38.20;;
37001;SDS011;22913;51.910;8.374;2023-02-23T05:11:20;43.70;;;38.13;;
37001;SDS011;22913;51.910;8.374;2023-02-23T05:14:05;50.40;;;39.93;;
37001;SDS011;22913;51.910;8.374;2023-02-23T05:16:51;51.20;;;40.77;;
37001;SDS011;22913;51.910;8.374;2023-02-23T05:19:39;54.40;;;42.17;;
37001;SDS011;22913;51.910;8.374;2023-02-23T05:22:25;54.33;;;43.73;;
37001;SDS011;22913;51.910;8.374;2023-02-23T05:25:10;53.57;;;42.10;;
37001;SDS011;22913;51.910;8.374;2023-02-23T05:27:56;54.80;;;43.37;;
37001;SDS011;22913;51.910;8.374;2023-02-23T05:30:42;53.50;;;42.53;;
37001;SDS011;22913;51.910;8.374;2023-02-23T05:33:28;54.87;;;42.97;;
37001;SDS011;22913;51.910;8.374;2023-02-23T05:36:16;56.67;;;43.17;;
37001;SDS011;22913;51.910;8.374;2023-02-23T05:39:02;51.80;;;40.70;;
37001;SDS011;22913;51.910;8.374;2023-02-23T05:41:48;50.00;;;40.40;;
37001;SDS011;22913;51.910;8.374;2023-02-23T05:44:34;60.53;;;47.17;;
37001;SDS011;22913;51.910;8.374;2023-02-23T05:47:19;54.07;;;43.87;;
37001;SDS011;22913;51.910;8.374;2023-02-23T05:50:06;61.00;;;46.07;;
37001;SDS011;22913;51.910;8.374;2023-02-23T05:52:55;51.90;;;45.00;;
37001;SDS011;22913;51.910;8.374;2023-02-23T05:55:40;58.37;;;44.57;;
37001;SDS011;22913;51.910;8.374;2023-02-23T05:58:26;57.80;;;44.40;;
37001;SDS011;22913;51.910;8.374;2023-02-23T06:01:12;58.03;;;44.03;;
37001;SDS011;22913;51.910;8.374;2023-02-23T06:03:57;58.03;;;45.37;;
37001;SDS011;22913;51.910;8.374;2023-02-23T06:06:43;57.57;;;44.27;;
37001;SDS011;22913;51.910;8.374;2023-02-23T06:09:30;57.93;;;44.57;;
37001;SDS011;22913;51.910;8.374;2023-02-23T06:12:16;61.67;;;44.90;;
37001;SDS011;22913;51.910;8.374;2023-02-23T06:15:01;53.67;;;42.57;;
37001;SDS011;22913;51.910;8.374;2023-02-23T06:17:47;60.17;;;44.90;;
37001;SDS011;22913;51.910;8.374;2023-02-23T06:20:33;61.43;;;44.07;;
37001;SDS011;22913;51.910;8.374;2023-02-23T06:23:20;58.20;;;46.03;;
37001;SDS011;22913;51.910;8.374;2023-02-23T06:26:07;65.13;;;46.80;;
37001;SDS011;22913;51.910;8.374;2023-02-23T06:28:52;61.40;;;46.07;;
37001;SDS011;22913;51.910;8.374;2023-02-23T06:31:38;65.97;;;48.30;;
37001;SDS011;22913;51.910;8.374;2023-02-23T06:34:23;66.90;;;46.43;;
37001;SDS011;22913;51.910;8.374;2023-02-23T06:37:09;71.03;;;48.83;;
37001;SDS011;22913;51.910;8.374;2023-02-23T06:39:55;69.37;;;47.33;;
37001;SDS011;22913;51.910;8.374;2023-02-23T06:42:42;74.17;;;48.83;;
37001;SDS011;22913;51.910;8.374;2023-02-23T06:45:28;69.37;;;49.30;;
37001;SDS011;22913;51.910;8.374;2023-02-23T06:48:14;69.00;;;47.77;;
37001;SDS011;22913;51.910;8.374;2023-02-23T06:51:00;73.27;;;48.07;;
37001;SDS011;22913;51.910;8.374;2023-02-23T06:53:46;76.93;;;48.70;;
37001;SDS011;22913;51.910;8.374;2023-02-23T06:56:31;67.87;;;48.50;;
37001;SDS011;22913;51.910;8.374;2023-02-23T06:59:19;68.07;;;47.77;;
37001;SDS011;22913;51.910;8.374;2023-02-23T07:02:04;61.33;;;46.17;;
37001;SDS011;22913;51.910;8.374;2023-02-23T07:04:50;68.37;;;49.20;;
37001;SDS011;22913;51.910;8.374;2023-02-23T07:07:36;65.00;;;45.53;;
37001;SDS011;22913;51.910;8.374;2023-02-23T07:10:21;70.13;;;48.33;;
37001;SDS011;22913;51.910;8.374;2023-02-23T07:13:07;62.73;;;46.03;;
37001;SDS011;22913;51.910;8.374;2023-02-23T07:15:56;64.87;;;48.87;;
37001;SDS011;22913;51.910;8.374;2023-02-23T07:18:42;59.00;;;44.90;;
37001;SDS011;22913;51.910;8.374;2023-02-23T07:21:28;60.87;;;47.07;;
37001;SDS011;22913;51.910;8.374;2023-02-23T07:24:15;57.37;;;45.43;;
37001;SDS011;22913;51.910;8.374;2023-02-23T07:27:00;59.83;;;45.73;;
37001;SDS011;22913;51.910;8.374;2023-02-23T07:29:46;63.93;;;47.60;;
37001;SDS011;22913;51.910;8.374;2023-02-23T07:32:33;57.27;;;46.47;;
37001;SDS011;22913;51.910;8.374;2023-02-23T07:35:18;65.37;;;46.77;;
37001;SDS011;22913;51.910;8.374;2023-02-23T07:38:04;58.57;;;45.07;;
37001;SDS011;22913;51.910;8.374;2023-02-23T07:40:50;63.37;;;47.33;;
37001;SDS011;22913;51.910;8.374;2023-02-23T07:43:36;65.83;;;46.67;;
37001;SDS011;22913;51.910;8.374;2023-02-23T07:46:21;61.07;;;46.60;;
37001;SDS011;22913;51.910;8.374;2023-02-23T07:49:08;64.10;;;45.47;;
37001;SDS011;22913;51.910;8.374;2023-02-23T07:51:54;59.40;;;46.47;;
37001;SDS011;22913;51.910;8.374;2023-02-23T07:54:39;59.73;;;47.50;;
37001;SDS011;22913;51.910;8.374;2023-02-23T07:57:25;56.43;;;44.93;;
37001;SDS011;22913;51.910;8.374;2023-02-23T08:00:11;61.50;;;47.03;;
37001;SDS011;22913;51.910;8.374;2023-02-23T08:02:57;63.13;;;47.37;;
37001;SDS011;22913;51.910;8.374;2023-02-23T08:05:45;58.97;;;46.30;;
37001;SDS011;22913;51.910;8.374;2023-02-23T08:08:31;63.73;;;47.67;;
37001;SDS011;22913;51.910;8.374;2023-02-23T08:11:17;62.10;;;46.70;;
37001;SDS011;22913;51.910;8.374;2023-02-23T08:14:04;63.63;;;49.17;;
37001;SDS011;22913;51.910;8.374;2023-02-23T08:16:50;68.00;;;49.80;;
37001;SDS011;22913;51.910;8.374;2023-02-23T08:19:36;67.70;;;51.33;;
37001;SDS011;22913;51.910;8.374;2023-02-23T08:22:22;71.87;;;53.23;;
37001;SDS011;22913;51.910;8.374;2023-02-23T08:25:08;72.90;;;51.43;;
37001;SDS011;22913;51.910;8.374;2023-02-23T08:27:54;74.60;;;54.13;;
37001;SDS011;22913;51.910;8.374;2023-02-23T08:30:39;74.43;;;53.20;;
37001;SDS011;22913;51.910;8.374;2023-02-23T08:33:25;69.53;;;52.27;;
37001;SDS011;22913;51.910;8.374;2023-02-23T08:36:11;70.47;;;52.53;;
37001;SDS011;22913;51.910;8.374;2023-02-23T08:38:58;72.40;;;51.83;;
37001;SDS011;22913;51.910;8.374;2023-02-23T08:41:44;69.90;;;50.50;;
37001;SDS011;22913;51.910;8.374;2023-02-23T08:44:30;72.87;;;51.03;;
37001;SDS011;22913;51.910;8.374;2023-02-23T08:47:16;68.97;;;51.83;;
37001;SDS011;22913;51.910;8.374;2023-02-23T08:50:04;72.83;;;52.90;;
37001;SDS011;22913;51.910;8.374;2023-02-23T08:52:50;72.20;;;52.47;;
37001;SDS011;22913;51.910;8.374;2023-02-23T08:55:37;67.00;;;51.10;;
37001;SDS011;22913;51.910;8.374;2023-02-23T08:58:22;66.47;;;49.13;;
37001;SDS011;22913;51.910;8.374;2023-02-23T09:01:14;67.13;;;49.10;;
37001;SDS011;22913;51.910;8.374;2023-02-23T09:04:01;68.43;;;50.03;;
37001;SDS011;22913;51.910;8.374;2023-02-23T09:06:47;69.07;;;51.13;;
37001;SDS011;22913;51.910;8.374;2023-02-23T09:09:33;67.40;;;51.03;;
37001;SDS011;22913;51.910;8.374;2023-02-23T09:12:20;68.53;;;52.33;;
37001;SDS011;22913;51.910;8.374;2023-02-23T09:15:06;66.20;;;49.80;;
37001;SDS011;22913;51.910;8.374;2023-02-23T09:17:53;72.97;;;52.27;;
37001;SDS011;22913;51.910;8.374;2023-02-23T09:20:39;67.33;;;49.83;;
37001;SDS011;22913;51.910;8.374;2023-02-23T09:23:26;65.33;;;51.90;;
37001;SDS011;22913;51.910;8.374;2023-02-23T09:26:12;70.80;;;52.43;;
37001;SDS011;22913;51.910;8.374;2023-02-23T09:29:00;72.57;;;53.37;;
37001;SDS011;22913;51.910;8.374;2023-02-23T09:31:46;71.87;;;53.63;;
37001;SDS011;22913;51.910;8.374;2023-02-23T09:34:34;73.00;;;53.47;;
37001;SDS011;22913;51.910;8.374;2023-02-23T09:37:19;74.20;;;53.67;;
37001;SDS011;22913;51.910;8.374;2023-02-23T09:40:06;73.93;;;53.57;;
37001;SDS011;22913;51.910;8.374;2023-02-23T09:42:57;73.17;;;55.63;;
37001;SDS011;22913;51.910;8.374;2023-02-23T09:45:48;78.20;;;56.90;;
37001;SDS011;22913;51.910;8.374;2023-02-23T09:48:39;79.33;;;55.87;;
37001;SDS011;22913;51.910;8.374;2023-02-23T09:51:25;73.17;;;54.67;;
37001;SDS011;22913;51.910;8.374;2023-02-23T09:54:13;71.57;;;54.50;;
37001;SDS011;22913;51.910;8.374;2023-02-23T09:57:02;65.13;;;51.97;;
37001;SDS011;22913;51.910;8.374;2023-02-23T09:59:50;69.30;;;50.77;;
37001;SDS011;22913;51.910;8.374;2023-02-23T10:02:39;66.77;;;51.03;;
37001;SDS011;22913;51.910;8.374;2023-02-23T10:05:42;61.13;;;48.80;;
37001;SDS011;22913;51.910;8.374;2023-02-23T10:08:37;61.43;;;49.27;;
37001;SDS011;22913;51.910;8.374;2023-02-23T10:11:33;62.77;;;48.17;;
37001;SDS011;22913;51.910;8.374;2023-02-23T10:17:45;56.33;;;46.57;;
37001;SDS011;22913;51.910;8.374;2023-02-23T10:20:41;58.77;;;47.13;;
37001;SDS011;22913;51.910;8.374;2023-02-23T10:23:35;58.17;;;46.33;;
37001;SDS011;22913;51.910;8.374;2023-02-23T10:26:25;54.97;;;43.17;;
37001;SDS011;22913;51.910;8.374;2023-02-23T10:29:20;56.30;;;45.80;;
37001;SDS011;22913;51.910;8.374;2023-02-23T10:32:15;56.40;;;45.80;;
37001;SDS011;22913;51.910;8.374;2023-02-23T10:35:10;53.03;;;43.87;;
37001;SDS011;22913;51.910;8.374;2023-02-23T10:37:58;55.00;;;46.10;;
37001;SDS011;22913;51.910;8.374;2023-02-23T10:40:48;53.40;;;44.17;;
37001;SDS011;22913;51.910;8.374;2023-02-23T10:43:37;52.50;;;43.90;;
37001;SDS011;22913;51.910;8.374;2023-02-23T10:46:24;52.77;;;44.60;;
37001;SDS011;22913;51.910;8.374;2023-02-23T10:49:17;51.23;;;41.90;;
37001;SDS011;22913;51.910;8.374;2023-02-23T10:52:09;52.57;;;42.33;;
37001;SDS011;22913;51.910;8.374;2023-02-23T10:54:56;51.57;;;43.30;;
37001;SDS011;22913;51.910;8.374;2023-02-23T10:57:43;54.57;;;44.17;;
37001;SDS011;22913;51.910;8.374;2023-02-23T11:00:29;56.23;;;45.77;;
37001;SDS011;22913;51.910;8.374;2023-02-23T11:03:17;49.57;;;42.50;;
37001;SDS011;22913;51.910;8.374;2023-02-23T11:06:25;51.73;;;43.90;;
37001;SDS011;22913;51.910;8.374;2023-02-23T11:09:21;54.67;;;42.80;;
37001;SDS011;22913;51.910;8.374;2023-02-23T11:12:14;57.43;;;44.73;;
37001;SDS011;22913;51.910;8.374;2023-02-23T11:15:19;52.37;;;43.63;;
37001;SDS011;22913;51.910;8.374;2023-02-23T11:18:16;46.87;;;40.40;;
37001;SDS011;22913;51.910;8.374;2023-02-23T11:21:08;45.43;;;39.20;;
37001;SDS011;22913;51.910;8.374;2023-02-23T11:23:56;48.47;;;41.13;;
37001;SDS011;22913;51.910;8.374;2023-02-23T11:26:44;43.70;;;38.80;;
37001;SDS011;22913;51.910;8.374;2023-02-23T11:29:32;43.73;;;36.97;;
37001;SDS011;22913;51.910;8.374;2023-02-23T11:32:20;42.10;;;36.67;;
37001;SDS011;22913;51.910;8.374;2023-02-23T11:35:11;42.87;;;37.23;;
37001;SDS011;22913;51.910;8.374;2023-02-23T11:38:21;43.10;;;36.50;;
37001;SDS011;22913;51.910;8.374;2023-02-23T11:41:16;42.27;;;36.67;;
37001;SDS011;22913;51.910;8.374;2023-02-23T11:44:05;42.57;;;36.27;;
37001;SDS011;22913;51.910;8.374;2023-02-23T11:46:51;47.43;;;36.40;;
37001;SDS011;22913;51.910;8.374;2023-02-23T11:49:36;40.20;;;35.53;;
37001;SDS011;22913;51.910;8.374;2023-02-23T11:52:23;46.47;;;38.33;;
37001;SDS011;22913;51.910;8.374;2023-02-23T11:55:14;42.47;;;35.73;;
37001;SDS011;22913;51.910;8.374;2023-02-23T11:58:09;43.13;;;36.83;;
37001;SDS011;22913;51.910;8.374;2023-02-23T12:01:09;44.67;;;36.67;;
37001;SDS011;22913;51.910;8.374;2023-02-23T12:03:56;44.77;;;36.73;;
37001;SDS011;22913;51.910;8.374;2023-02-23T12:06:42;42.77;;;35.93;;
37001;SDS011;22913;51.910;8.374;2023-02-23T12:09:28;41.43;;;34.93;;
37001;SDS011;22913;51.910;8.374;2023-02-23T12:12:18;45.47;;;36.30;;
37001;SDS011;22913;51.910;8.374;2023-02-23T12:15:09;40.23;;;34.90;;
37001;SDS011;22913;51.910;8.374;2023-02-23T12:18:06;45.63;;;36.17;;
37001;SDS011;22913;51.910;8.374;2023-02-23T12:20:59;43.90;;;34.10;;
37001;SDS011;22913;51.910;8.374;2023-02-23T12:24:00;44.77;;;33.13;;
37001;SDS011;22913;51.910;8.374;2023-02-23T12:26:54;43.97;;;33.60;;
37001;SDS011;22913;51.910;8.374;2023-02-23T12:29:51;43.30;;;36.10;;
37001;SDS011;22913;51.910;8.374;2023-02-23T12:32:45;44.40;;;33.43;;
37001;SDS011;22913;51.910;8.374;2023-02-23T12:35:41;47.70;;;34.80;;
37001;SDS011;22913;51.910;8.374;2023-02-23T12:38:32;44.60;;;34.00;;
37001;SDS011;22913;51.910;8.374;2023-02-23T12:41:30;43.83;;;33.73;;
37001;SDS011;22913;51.910;8.374;2023-02-23T12:44:25;44.20;;;33.87;;
37001;SDS011;22913;51.910;8.374;2023-02-23T12:47:19;42.73;;;33.17;;
37001;SDS011;22913;51.910;8.374;2023-02-23T12:50:10;40.90;;;32.10;;
37001;SDS011;22913;51.910;8.374;2023-02-23T12:53:06;40.83;;;32.90;;
37001;SDS011;22913;51.910;8.374;2023-02-23T12:59:19;37.90;;;30.17;;
37001;SDS011;22913;51.910;8.374;2023-02-23T13:02:20;37.60;;;28.87;;
37001;SDS011;22913;51.910;8.374;2023-02-23T13:05:15;37.57;;;28.67;;
37001;SDS011;22913;51.910;8.374;2023-02-23T13:08:10;37.67;;;29.50;;
37001;SDS011;22913;51.910;8.374;2023-02-23T13:11:05;40.87;;;28.87;;
37001;SDS011;22913;51.910;8.374;2023-02-23T13:13:58;35.07;;;27.27;;
37001;SDS011;22913;51.910;8.374;2023-02-23T13:16:53;33.27;;;25.30;;
37001;SDS011;22913;51.910;8.374;2023-02-23T13:19:45;32.57;;;25.03;;
37001;SDS011;22913;51.910;8.374;2023-02-23T13:22:36;31.00;;;25.23;;
37001;SDS011;22913;51.910;8.374;2023-02-23T13:25:33;32.00;;;25.03;;
37001;SDS011;22913;51.910;8.374;2023-02-23T13:28:35;32.67;;;24.70;;
37001;SDS011;22913;51.910;8.374;2023-02-23T13:31:30;33.13;;;23.93;;
37001;SDS011;22913;51.910;8.374;2023-02-23T13:34:20;30.70;;;23.47;;
37001;SDS011;22913;51.910;8.374;2023-02-23T13:37:11;29.73;;;22.53;;
37001;SDS011;22913;51.910;8.374;2023-02-23T13:43:16;29.83;;;22.03;;
37001;SDS011;22913;51.910;8.374;2023-02-23T13:46:11;30.03;;;22.53;;
37001;SDS011;22913;51.910;8.374;2023-02-23T13:49:08;27.63;;;22.43;;
37001;SDS011;22913;51.910;8.374;2023-02-23T13:52:08;30.70;;;22.40;;
37001;SDS011;22913;51.910;8.374;2023-02-23T13:54:59;27.80;;;20.67;;
37001;SDS011;22913;51.910;8.374;2023-02-23T13:57:47;28.40;;;21.53;;
37001;SDS011;22913;51.910;8.374;2023-02-23T14:00:34;24.43;;;18.47;;
37001;SDS011;22913;51.910;8.374;2023-02-23T14:03:21;25.13;;;19.20;;
37001;SDS011;22913;51.910;8.374;2023-02-23T14:06:11;24.70;;;19.50;;
37001;SDS011;22913;51.910;8.374;2023-02-23T14:09:05;26.13;;;17.80;;
37001;SDS011;22913;51.910;8.374;2023-02-23T14:11:55;26.00;;;18.17;;
37001;SDS011;22913;51.910;8.374;2023-02-23T14:14:46;33.70;;;18.47;;
37001;SDS011;22913;51.910;8.374;2023-02-23T14:20:45;25.13;;;17.53;;
37001;SDS011;22913;51.910;8.374;2023-02-23T14:23:48;23.77;;;17.07;;
37001;SDS011;22913;51.910;8.374;2023-02-23T14:26:37;24.17;;;17.03;;
37001;SDS011;22913;51.910;8.374;2023-02-23T14:29:29;22.17;;;16.20;;
37001;SDS011;22913;51.910;8.374;2023-02-23T14:32:26;24.03;;;16.90;;
37001;SDS011;22913;51.910;8.374;2023-02-23T14:38:29;25.37;;;16.50;;
37001;SDS011;22913;51.910;8.374;2023-02-23T14:41:19;24.80;;;17.40;;
37001;SDS011;22913;51.910;8.374;2023-02-23T14:44:07;28.00;;;17.33;;
37001;SDS011;22913;51.910;8.374;2023-02-23T14:47:00;22.47;;;16.87;;
37001;SDS011;22913;51.910;8.374;2023-02-23T14:49:48;22.17;;;16.63;;
37001;SDS011;22913;51.910;8.374;2023-02-23T14:52:39;18.77;;;14.67;;
37001;SDS011;22913;51.910;8.374;2023-02-23T14:55:26;20.90;;;15.43;;
37001;SDS011;22913;51.910;8.374;2023-02-23T14:58:20;19.73;;;15.20;;
37001;SDS011;22913;51.910;8.374;2023-02-23T15:01:06;18.73;;;14.10;;
37001;SDS011;22913;51.910;8.374;2023-02-23T15:04:03;20.03;;;12.97;;
37001;SDS011;22913;51.910;8.374;2023-02-23T15:06:51;21.27;;;13.07;;
37001;SDS011;22913;51.910;8.374;2023-02-23T15:09:41;16.70;;;12.77;;
37001;SDS011;22913;51.910;8.374;2023-02-23T15:12:28;21.07;;;12.50;;
37001;SDS011;22913;51.910;8.374;2023-02-23T15:15:19;19.20;;;12.53;;
37001;SDS011;22913;51.910;8.374;2023-02-23T15:18:08;17.27;;;11.13;;
37001;SDS011;22913;51.910;8.374;2023-02-23T15:20:58;17.77;;;11.77;;
37001;SDS011;22913;51.910;8.374;2023-02-23T15:23:44;16.70;;;11.90;;
37001;SDS011;22913;51.910;8.374;2023-02-23T15:26:34;20.57;;;11.97;;
37001;SDS011;22913;51.910;8.374;2023-02-23T15:29:22;19.47;;;11.60;;
37001;SDS011;22913;51.910;8.374;2023-02-23T15:32:10;19.13;;;12.37;;
37001;SDS011;22913;51.910;8.374;2023-02-23T15:35:01;17.67;;;11.57;;
37001;SDS011;22913;51.910;8.374;2023-02-23T15:37:47;17.93;;;12.53;;
37001;SDS011;22913;51.910;8.374;2023-02-23T15:40:34;16.90;;;11.97;;
37001;SDS011;22913;51.910;8.374;2023-02-23T15:43:22;25.50;;;12.90;;
37001;SDS011;22913;51.910;8.374;2023-02-23T15:46:08;19.20;;;11.97;;
37001;SDS011;22913;51.910;8.374;2023-02-23T15:49:07;17.37;;;12.33;;
37001;SDS011;22913;51.910;8.374;2023-02-23T15:51:57;21.70;;;13.33;;
37001;SDS011;22913;51.910;8.374;2023-02-23T15:54:46;21.03;;;13.13;;
37001;SDS011;22913;51.910;8.374;2023-02-23T15:57:40;21.57;;;13.07;;
37001;SDS011;22913;51.910;8.374;2023-02-23T16:00:33;27.90;;;14.83;;
37001;SDS011;22913;51.910;8.374;2023-02-23T16:03:23;31.10;;;15.20;;
37001;SDS011;22913;51.910;8.374;2023-02-23T16:06:20;23.53;;;15.47;;
37001;SDS011;22913;51.910;8.374;2023-02-23T16:09:12;26.33;;;16.47;;
37001;SDS011;22913;51.910;8.374;2023-02-23T16:12:04;30.43;;;17.60;;
37001;SDS011;22913;51.910;8.374;2023-02-23T16:14:56;31.07;;;18.17;;
37001;SDS011;22913;51.910;8.374;2023-02-23T16:17:46;27.63;;;17.17;;
37001;SDS011;22913;51.910;8.374;2023-02-23T16:20:36;34.37;;;18.17;;
37001;SDS011;22913;51.910;8.374;2023-02-23T16:23:26;30.03;;;17.37;;
37001;SDS011;22913;51.910;8.374;2023-02-23T16:26:15;30.67;;;17.43;;
37001;SDS011;22913;51.910;8.374;2023-02-23T16:29:08;40.03;;;19.17;;
37001;SDS011;22913;51.910;8.374;2023-02-23T16:32:01;28.60;;;18.20;;
37001;SDS011;22913;51.910;8.374;2023-02-23T16:34:58;29.73;;;17.93;;
37001;SDS011;22913;51.910;8.374;2023-02-23T16:37:53;29.60;;;18.63;;
37001;SDS011;22913;51.910;8.374;2023-02-23T16:40:41;31.27;;;18.60;;
37001;SDS011;22913;51.910;8.374;2023-02-23T16:43:27;34.33;;;19.50;;
37001;SDS011;22913;51.910;8.374;2023-02-23T16:46:14;32.63;;;20.27;;
37001;SDS011;22913;51.910;8.374;2023-02-23T16:49:00;31.83;;;20.53;;
37001;SDS011;22913;51.910;8.374;2023-02-23T16:51:54;29.33;;;18.33;;
37001;SDS011;22913;51.910;8.374;2023-02-23T16:54:40;33.77;;;20.50;;
37001;SDS011;22913;51.910;8.374;2023-02-23T16:57:26;32.90;;;19.67;;
37001;SDS011;22913;51.910;8.374;2023-02-23T17:00:14;30.93;;;19.43;;
37001;SDS011;22913;51.910;8.374;2023-02-23T17:03:05;31.33;;;20.70;;